sensor_id;sensor_type;location;lat;lon;timestamp;P1;durP1;ratioP1;P2;durP2;ratioP2
9801;SDS011;4940;50.900;4.672;2022-12-13T00:00:27;19.60;;;9.83;;
9801;SDS011;4940;50.900;4.672;2022-12-13T00:02:55;19.40;;;9.20;;
9801;SDS011;4940;50.900;4.672;2022-12-13T00:05:23;16.77;;;8.20;;
9801;SDS011;4940;50.900;4.672;2022-12-13T00:07:50;23.27;;;9.67;;
9801;SDS011;4940;50.900;4.672;2022-12-13T00:10:18;25.97;;;8.67;;
9801;SDS011;4940;50.900;4.672;2022-12-13T00:12:45;20.53;;;8.27;;
9801;SDS011;4940;50.900;4.672;2022-12-13T00:15:13;18.87;;;8.43;;
9801;SDS011;4940;50.900;4.672;2022-12-13T00:17:41;22.00;;;8.90;;
9801;SDS011;4940;50.900;4.672;2022-12-13T00:20:09;17.67;;;7.87;;
9801;SDS011;4940;50.900;4.672;2022-12-13T00:22:39;16.77;;;7.63;;
9801;SDS011;4940;50.900;4.672;2022-12-13T00:25:06;16.30;;;7.10;;
9801;SDS011;4940;50.900;4.672;2022-12-13T00:27:33;22.10;;;9.63;;
9801;SDS011;4940;50.900;4.672;2022-12-13T00:30:01;18.77;;;8.10;;
9801;SDS011;4940;50.900;4.672;2022-12-13T00:32:28;22.03;;;9.30;;
9801;SDS011;4940;50.900;4.672;2022-12-13T00:34:57;22.13;;;8.87;;
9801;SDS011;4940;50.900;4.672;2022-12-13T00:37:25;22.20;;;9.30;;
9801;SDS011;4940;50.900;4.672;2022-12-13T00:39:52;17.67;;;8.43;;
9801;SDS011;4940;50.900;4.672;2022-12-13T00:42:19;18.07;;;8.30;;
9801;SDS011;4940;50.900;4.672;2022-12-13T00:44:46;24.33;;;7.47;;
9801;SDS011;4940;50.900;4.672;2022-12-13T00:47:14;16.63;;;7.83;;
9801;SDS011;4940;50.900;4.672;2022-12-13T00:49:43;22.53;;;8.60;;
9801;SDS011;4940;50.900;4.672;2022-12-13T00:52:11;24.07;;;8.63;;
9801;SDS011;4940;50.900;4.672;2022-12-13T00:54:39;17.87;;;7.77;;
9801;SDS011;4940;50.900;4.672;2022-12-13T00:57:06;21.17;;;8.40;;
9801;SDS011;4940;50.900;4.672;2022-12-13T00:59:34;21.50;;;9.13;;
9801;SDS011;4940;50.900;4.672;2022-12-13T01:02:01;20.63;;;9.07;;
9801;SDS011;4940;50.900;4.672;2022-12-13T01:04:28;19.10;;;8.80;;
9801;SDS011;4940;50.900;4.672;2022-12-13T01:06:56;25.83;;;9.37;;
9801;SDS011;4940;50.900;4.672;2022-12-13T01:09:25;16.73;;;8.20;;
9801;SDS011;4940;50.900;4.672;2022-12-13T01:11:55;23.70;;;9.27;;
9801;SDS011;4940;50.900;4.672;2022-12-13T01:14:23;18.57;;;8.60;;
9801;SDS011;4940;50.900;4.672;2022-12-13T01:16:50;18.90;;;8.67;;
9801;SDS011;4940;50.900;4.672;2022-12-13T01:19:20;18.47;;;8.87;;
9801;SDS011;4940;50.900;4.672;2022-12-13T01:21:48;23.33;;;8.83;;
9801;SDS011;4940;50.900;4.672;2022-12-13T01:24:15;18.30;;;8.13;;
9801;SDS011;4940;50.900;4.672;2022-12-13T01:26:46;20.27;;;8.73;;
9801;SDS011;4940;50.900;4.672;2022-12-13T01:29:13;18.23;;;8.40;;
9801;SDS011;4940;50.900;4.672;2022-12-13T01:31:41;20.07;;;8.37;;
9801;SDS011;4940;50.900;4.672;2022-12-13T01:34:08;17.67;;;8.10;;
9801;SDS011;4940;50.900;4.672;2022-12-13T01:36:37;16.67;;;7.60;;
9801;SDS011;4940;50.900;4.672;2022-12-13T01:39:05;18.63;;;8.40;;
9801;SDS011;4940;50.900;4.672;2022-12-13T01:41:32;21.37;;;8.77;;
9801;SDS011;4940;50.900;4.672;2022-12-13T01:44:01;20.03;;;8.50;;
9801;SDS011;4940;50.900;4.672;2022-12-13T01:46:30;23.70;;;8.87;;
9801;SDS011;4940;50.900;4.672;2022-12-13T01:49:00;18.47;;;8.80;;
9801;SDS011;4940;50.900;4.672;2022-12-13T01:51:31;16.47;;;8.77;;
9801;SDS011;4940;50.900;4.672;2022-12-13T01:54:03;17.80;;;8.33;;
9801;SDS011;4940;50.900;4.672;2022-12-13T01:56:34;22.60;;;9.47;;
9801;SDS011;4940;50.900;4.672;2022-12-13T01:59:05;19.70;;;9.00;;
9801;SDS011;4940;50.900;4.672;2022-12-13T02:01:35;17.77;;;8.30;;
9801;SDS011;4940;50.900;4.672;2022-12-13T02:04:02;16.07;;;7.83;;
9801;SDS011;4940;50.900;4.672;2022-12-13T02:06:31;23.80;;;8.17;;
9801;SDS011;4940;50.900;4.672;2022-12-13T02:09:00;18.87;;;8.50;;
9801;SDS011;4940;50.900;4.672;2022-12-13T02:11:29;20.63;;;8.43;;
9801;SDS011;4940;50.900;4.672;2022-12-13T02:13:57;20.03;;;9.00;;
9801;SDS011;4940;50.900;4.672;2022-12-13T02:16:33;19.33;;;9.03;;
9801;SDS011;4940;50.900;4.672;2022-12-13T02:19:22;16.47;;;8.37;;
9801;SDS011;4940;50.900;4.672;2022-12-13T02:22:20;20.13;;;7.93;;
9801;SDS011;4940;50.900;4.672;2022-12-13T02:25:16;18.27;;;7.63;;
9801;SDS011;4940;50.900;4.672;2022-12-13T02:28:12;19.43;;;7.47;;
9801;SDS011;4940;50.900;4.672;2022-12-13T02:30:55;16.90;;;7.83;;
9801;SDS011;4940;50.900;4.672;2022-12-13T02:33:31;18.47;;;8.30;;
9801;SDS011;4940;50.900;4.672;2022-12-13T02:36:07;17.97;;;7.83;;
9801;SDS011;4940;50.900;4.672;2022-12-13T02:38:42;17.03;;;7.87;;
9801;SDS011;4940;50.900;4.672;2022-12-13T02:41:18;17.37;;;8.07;;
9801;SDS011;4940;50.900;4.672;2022-12-13T02:43:52;20.67;;;8.20;;
9801;SDS011;4940;50.900;4.672;2022-12-13T02:46:25;16.43;;;7.07;;
9801;SDS011;4940;50.900;4.672;2022-12-13T02:48:56;18.93;;;8.40;;
9801;SDS011;4940;50.900;4.672;2022-12-13T02:51:26;17.13;;;7.60;;
9801;SDS011;4940;50.900;4.672;2022-12-13T02:53:53;20.73;;;7.53;;
9801;SDS011;4940;50.900;4.672;2022-12-13T02:56:21;13.77;;;7.07;;
9801;SDS011;4940;50.900;4.672;2022-12-13T02:58:48;14.93;;;7.43;;
9801;SDS011;4940;50.900;4.672;2022-12-13T03:01:22;20.97;;;7.47;;
9801;SDS011;4940;50.900;4.672;2022-12-13T03:04:05;21.93;;;6.50;;
9801;SDS011;4940;50.900;4.672;2022-12-13T03:06:38;18.40;;;8.10;;
9801;SDS011;4940;50.900;4.672;2022-12-13T03:09:17;19.27;;;8.17;;
9801;SDS011;4940;50.900;4.672;2022-12-13T03:11:52;13.70;;;6.90;;
9801;SDS011;4940;50.900;4.672;2022-12-13T03:14:49;17.03;;;7.90;;
9801;SDS011;4940;50.900;4.672;2022-12-13T03:17:25;20.57;;;7.57;;
9801;SDS011;4940;50.900;4.672;2022-12-13T03:19:57;21.70;;;7.93;;
9801;SDS011;4940;50.900;4.672;2022-12-13T03:22:25;17.93;;;7.10;;
9801;SDS011;4940;50.900;4.672;2022-12-13T03:24:52;21.40;;;8.73;;
9801;SDS011;4940;50.900;4.672;2022-12-13T03:27:20;18.53;;;8.13;;
9801;SDS011;4940;50.900;4.672;2022-12-13T03:29:47;17.30;;;6.87;;
9801;SDS011;4940;50.900;4.672;2022-12-13T03:32:14;16.17;;;8.17;;
9801;SDS011;4940;50.900;4.672;2022-12-13T03:34:43;16.20;;;7.80;;
9801;SDS011;4940;50.900;4.672;2022-12-13T03:37:11;17.60;;;7.43;;
9801;SDS011;4940;50.900;4.672;2022-12-13T03:39:38;22.53;;;8.17;;
9801;SDS011;4940;50.900;4.672;2022-12-13T03:42:06;16.47;;;7.57;;
9801;SDS011;4940;50.900;4.672;2022-12-13T03:44:33;17.93;;;7.47;;
9801;SDS011;4940;50.900;4.672;2022-12-13T03:47:00;18.63;;;7.03;;
9801;SDS011;4940;50.900;4.672;2022-12-13T03:49:28;18.73;;;7.73;;
9801;SDS011;4940;50.900;4.672;2022-12-13T03:51:56;26.53;;;7.70;;
9801;SDS011;4940;50.900;4.672;2022-12-13T03:54:24;21.07;;;8.07;;
9801;SDS011;4940;50.900;4.672;2022-12-13T03:56:51;13.83;;;6.70;;
9801;SDS011;4940;50.900;4.672;2022-12-13T03:59:19;17.97;;;7.13;;
9801;SDS011;4940;50.900;4.672;2022-12-13T04:01:46;17.27;;;8.10;;
9801;SDS011;4940;50.900;4.672;2022-12-13T04:04:13;17.77;;;7.47;;
9801;SDS011;4940;50.900;4.672;2022-12-13T04:06:41;14.33;;;7.00;;
9801;SDS011;4940;50.900;4.672;2022-12-13T04:09:10;20.13;;;8.03;;
9801;SDS011;4940;50.900;4.672;2022-12-13T04:11:37;17.50;;;7.30;;
9801;SDS011;4940;50.900;4.672;2022-12-13T04:14:23;18.17;;;7.03;;
9801;SDS011;4940;50.900;4.672;2022-12-13T04:16:50;12.83;;;6.50;;
9801;SDS011;4940;50.900;4.672;2022-12-13T04:19:18;15.50;;;6.20;;
9801;SDS011;4940;50.900;4.672;2022-12-13T04:21:45;14.67;;;7.37;;
9801;SDS011;4940;50.900;4.672;2022-12-13T04:24:14;17.40;;;7.10;;
9801;SDS011;4940;50.900;4.672;2022-12-13T04:26:41;12.70;;;6.30;;
9801;SDS011;4940;50.900;4.672;2022-12-13T04:29:09;15.13;;;6.73;;
9801;SDS011;4940;50.900;4.672;2022-12-13T04:31:37;20.50;;;6.30;;
9801;SDS011;4940;50.900;4.672;2022-12-13T04:34:04;19.47;;;7.40;;
9801;SDS011;4940;50.900;4.672;2022-12-13T04:36:32;14.97;;;6.13;;
9801;SDS011;4940;50.900;4.672;2022-12-13T04:38:59;15.23;;;6.03;;
9801;SDS011;4940;50.900;4.672;2022-12-13T04:41:28;14.73;;;6.67;;
9801;SDS011;4940;50.900;4.672;2022-12-13T04:44:02;15.37;;;6.60;;
9801;SDS011;4940;50.900;4.672;2022-12-13T04:46:30;14.47;;;7.27;;
9801;SDS011;4940;50.900;4.672;2022-12-13T04:48:57;15.40;;;6.87;;
9801;SDS011;4940;50.900;4.672;2022-12-13T04:51:24;16.13;;;6.73;;
9801;SDS011;4940;50.900;4.672;2022-12-13T04:53:52;13.20;;;6.47;;
9801;SDS011;4940;50.900;4.672;2022-12-13T04:56:19;15.40;;;7.70;;
9801;SDS011;4940;50.900;4.672;2022-12-13T04:58:48;11.80;;;6.60;;
9801;SDS011;4940;50.900;4.672;2022-12-13T05:01:15;17.80;;;7.80;;
9801;SDS011;4940;50.900;4.672;2022-12-13T05:03:43;17.77;;;7.60;;
9801;SDS011;4940;50.900;4.672;2022-12-13T05:06:11;15.30;;;7.70;;
9801;SDS011;4940;50.900;4.672;2022-12-13T05:08:38;20.83;;;7.10;;
9801;SDS011;4940;50.900;4.672;2022-12-13T05:11:06;15.03;;;7.23;;
9801;SDS011;4940;50.900;4.672;2022-12-13T05:13:34;18.00;;;7.43;;
9801;SDS011;4940;50.900;4.672;2022-12-13T05:16:04;15.33;;;6.57;;
9801;SDS011;4940;50.900;4.672;2022-12-13T05:18:32;13.00;;;6.37;;
9801;SDS011;4940;50.900;4.672;2022-12-13T05:21:00;16.30;;;5.80;;
9801;SDS011;4940;50.900;4.672;2022-12-13T05:23:28;14.43;;;6.07;;
9801;SDS011;4940;50.900;4.672;2022-12-13T05:25:55;12.27;;;6.10;;
9801;SDS011;4940;50.900;4.672;2022-12-13T05:28:23;13.43;;;5.73;;
9801;SDS011;4940;50.900;4.672;2022-12-13T05:30:52;20.33;;;6.53;;
9801;SDS011;4940;50.900;4.672;2022-12-13T05:33:21;17.73;;;6.27;;
9801;SDS011;4940;50.900;4.672;2022-12-13T05:35:48;13.40;;;5.60;;
9801;SDS011;4940;50.900;4.672;2022-12-13T05:38:16;10.27;;;5.87;;
9801;SDS011;4940;50.900;4.672;2022-12-13T05:40:43;11.13;;;5.40;;
9801;SDS011;4940;50.900;4.672;2022-12-13T05:43:11;16.13;;;6.17;;
9801;SDS011;4940;50.900;4.672;2022-12-13T05:45:39;14.33;;;6.17;;
9801;SDS011;4940;50.900;4.672;2022-12-13T05:48:06;12.50;;;6.73;;
9801;SDS011;4940;50.900;4.672;2022-12-13T05:50:35;11.73;;;6.03;;
9801;SDS011;4940;50.900;4.672;2022-12-13T05:53:03;13.80;;;6.13;;
9801;SDS011;4940;50.900;4.672;2022-12-13T05:55:31;14.80;;;5.57;;
9801;SDS011;4940;50.900;4.672;2022-12-13T05:57:58;16.90;;;6.47;;
9801;SDS011;4940;50.900;4.672;2022-12-13T06:00:25;10.90;;;5.77;;
9801;SDS011;4940;50.900;4.672;2022-12-13T06:02:53;9.97;;;5.03;;
9801;SDS011;4940;50.900;4.672;2022-12-13T06:05:20;14.33;;;5.83;;
9801;SDS011;4940;50.900;4.672;2022-12-13T06:07:49;13.07;;;5.63;;
9801;SDS011;4940;50.900;4.672;2022-12-13T06:10:19;11.90;;;5.60;;
9801;SDS011;4940;50.900;4.672;2022-12-13T06:12:47;13.30;;;6.53;;
9801;SDS011;4940;50.900;4.672;2022-12-13T06:15:14;11.97;;;5.53;;
9801;SDS011;4940;50.900;4.672;2022-12-13T06:17:42;12.97;;;5.37;;
9801;SDS011;4940;50.900;4.672;2022-12-13T06:20:09;13.13;;;6.43;;
9801;SDS011;4940;50.900;4.672;2022-12-13T06:22:37;8.93;;;5.10;;
9801;SDS011;4940;50.900;4.672;2022-12-13T06:25:06;12.20;;;5.67;;
9801;SDS011;4940;50.900;4.672;2022-12-13T06:27:34;10.27;;;5.50;;
9801;SDS011;4940;50.900;4.672;2022-12-13T06:30:02;12.57;;;6.10;;
9801;SDS011;4940;50.900;4.672;2022-12-13T06:32:29;11.27;;;5.27;;
9801;SDS011;4940;50.900;4.672;2022-12-13T06:34:56;13.70;;;6.37;;
9801;SDS011;4940;50.900;4.672;2022-12-13T06:37:24;13.47;;;5.43;;
9801;SDS011;4940;50.900;4.672;2022-12-13T06:39:51;16.13;;;6.43;;
9801;SDS011;4940;50.900;4.672;2022-12-13T06:42:20;13.27;;;5.80;;
9801;SDS011;4940;50.900;4.672;2022-12-13T06:44:47;9.43;;;5.07;;
9801;SDS011;4940;50.900;4.672;2022-12-13T06:47:16;12.17;;;5.50;;
9801;SDS011;4940;50.900;4.672;2022-12-13T06:49:43;12.67;;;5.50;;
9801;SDS011;4940;50.900;4.672;2022-12-13T06:52:11;14.60;;;6.33;;
9801;SDS011;4940;50.900;4.672;2022-12-13T06:54:39;15.20;;;7.03;;
9801;SDS011;4940;50.900;4.672;2022-12-13T06:57:06;16.53;;;6.00;;
9801;SDS011;4940;50.900;4.672;2022-12-13T06:59:35;14.80;;;6.47;;
9801;SDS011;4940;50.900;4.672;2022-12-13T07:02:03;18.87;;;6.70;;
9801;SDS011;4940;50.900;4.672;2022-12-13T07:04:30;14.20;;;7.13;;
9801;SDS011;4940;50.900;4.672;2022-12-13T07:07:09;21.03;;;7.67;;
9801;SDS011;4940;50.900;4.672;2022-12-13T07:09:39;17.43;;;6.27;;
9801;SDS011;4940;50.900;4.672;2022-12-13T07:12:07;12.83;;;6.17;;
9801;SDS011;4940;50.900;4.672;2022-12-13T07:14:36;18.57;;;7.07;;
9801;SDS011;4940;50.900;4.672;2022-12-13T07:17:03;22.53;;;7.70;;
9801;SDS011;4940;50.900;4.672;2022-12-13T07:19:30;20.10;;;7.53;;
9801;SDS011;4940;50.900;4.672;2022-12-13T07:21:58;16.93;;;7.10;;
9801;SDS011;4940;50.900;4.672;2022-12-13T07:24:25;16.03;;;7.30;;
9801;SDS011;4940;50.900;4.672;2022-12-13T07:26:53;19.70;;;7.80;;
9801;SDS011;4940;50.900;4.672;2022-12-13T07:29:20;18.80;;;7.40;;
9801;SDS011;4940;50.900;4.672;2022-12-13T07:31:49;21.97;;;7.73;;
9801;SDS011;4940;50.900;4.672;2022-12-13T07:34:16;16.83;;;7.90;;
9801;SDS011;4940;50.900;4.672;2022-12-13T07:36:44;21.30;;;9.13;;
9801;SDS011;4940;50.900;4.672;2022-12-13T07:39:11;15.77;;;8.27;;
9801;SDS011;4940;50.900;4.672;2022-12-13T07:41:39;17.53;;;7.20;;
9801;SDS011;4940;50.900;4.672;2022-12-13T07:44:06;19.87;;;8.13;;
9801;SDS011;4940;50.900;4.672;2022-12-13T07:46:34;20.53;;;8.40;;
9801;SDS011;4940;50.900;4.672;2022-12-13T07:49:03;21.57;;;9.00;;
9801;SDS011;4940;50.900;4.672;2022-12-13T07:51:31;17.70;;;8.43;;
9801;SDS011;4940;50.900;4.672;2022-12-13T07:53:59;20.40;;;8.53;;
9801;SDS011;4940;50.900;4.672;2022-12-13T07:56:26;18.80;;;8.20;;
9801;SDS011;4940;50.900;4.672;2022-12-13T07:58:54;15.70;;;7.53;;
9801;SDS011;4940;50.900;4.672;2022-12-13T08:01:21;19.70;;;8.43;;
9801;SDS011;4940;50.900;4.672;2022-12-13T08:03:48;15.57;;;8.10;;
9801;SDS011;4940;50.900;4.672;2022-12-13T08:06:17;20.70;;;9.00;;
9801;SDS011;4940;50.900;4.672;2022-12-13T08:08:44;17.07;;;8.10;;
9801;SDS011;4940;50.900;4.672;2022-12-13T08:11:15;19.83;;;8.90;;
9801;SDS011;4940;50.900;4.672;2022-12-13T08:13:42;21.90;;;9.97;;
9801;SDS011;4940;50.900;4.672;2022-12-13T08:16:10;21.67;;;10.03;;
9801;SDS011;4940;50.900;4.672;2022-12-13T08:18:39;23.03;;;9.07;;
9801;SDS011;4940;50.900;4.672;2022-12-13T08:21:08;16.93;;;8.03;;
9801;SDS011;4940;50.900;4.672;2022-12-13T08:23:37;25.63;;;9.27;;
9801;SDS011;4940;50.900;4.672;2022-12-13T08:26:04;21.63;;;9.17;;
9801;SDS011;4940;50.900;4.672;2022-12-13T08:28:32;19.60;;;7.70;;
9801;SDS011;4940;50.900;4.672;2022-12-13T08:31:01;22.07;;;9.37;;
9801;SDS011;4940;50.900;4.672;2022-12-13T08:33:31;21.90;;;9.63;;
9801;SDS011;4940;50.900;4.672;2022-12-13T08:36:06;17.97;;;9.33;;
9801;SDS011;4940;50.900;4.672;2022-12-13T08:38:34;19.50;;;9.23;;
9801;SDS011;4940;50.900;4.672;2022-12-13T08:41:03;23.57;;;9.90;;
9801;SDS011;4940;50.900;4.672;2022-12-13T08:43:31;19.43;;;10.33;;
9801;SDS011;4940;50.900;4.672;2022-12-13T08:45:59;24.83;;;11.20;;
9801;SDS011;4940;50.900;4.672;2022-12-13T08:48:26;23.03;;;11.17;;
9801;SDS011;4940;50.900;4.672;2022-12-13T08:50:53;23.17;;;10.07;;
9801;SDS011;4940;50.900;4.672;2022-12-13T08:53:21;29.73;;;12.30;;
9801;SDS011;4940;50.900;4.672;2022-12-13T08:55:48;32.17;;;11.83;;
9801;SDS011;4940;50.900;4.672;2022-12-13T08:58:17;30.17;;;12.60;;
9801;SDS011;4940;50.900;4.672;2022-12-13T09:00:44;29.17;;;12.67;;
9801;SDS011;4940;50.900;4.672;2022-12-13T09:03:12;24.83;;;12.37;;
9801;SDS011;4940;50.900;4.672;2022-12-13T09:05:40;32.47;;;14.40;;
9801;SDS011;4940;50.900;4.672;2022-12-13T09:08:07;24.97;;;12.10;;
9801;SDS011;4940;50.900;4.672;2022-12-13T09:10:35;31.00;;;12.83;;
9801;SDS011;4940;50.900;4.672;2022-12-13T09:13:02;35.27;;;16.30;;
9801;SDS011;4940;50.900;4.672;2022-12-13T09:15:31;34.00;;;14.03;;
9801;SDS011;4940;50.900;4.672;2022-12-13T09:17:58;30.40;;;15.20;;
9801;SDS011;4940;50.900;4.672;2022-12-13T09:20:26;31.43;;;13.63;;
9801;SDS011;4940;50.900;4.672;2022-12-13T09:22:53;28.43;;;13.13;;
9801;SDS011;4940;50.900;4.672;2022-12-13T09:25:21;26.33;;;11.87;;
9801;SDS011;4940;50.900;4.672;2022-12-13T09:27:48;24.87;;;11.30;;
9801;SDS011;4940;50.900;4.672;2022-12-13T09:30:16;21.13;;;11.03;;
9801;SDS011;4940;50.900;4.672;2022-12-13T09:32:45;24.23;;;10.73;;
9801;SDS011;4940;50.900;4.672;2022-12-13T09:35:14;19.87;;;10.50;;
9801;SDS011;4940;50.900;4.672;2022-12-13T09:37:42;21.70;;;10.90;;
9801;SDS011;4940;50.900;4.672;2022-12-13T09:40:18;24.73;;;11.43;;
9801;SDS011;4940;50.900;4.672;2022-12-13T09:42:48;22.60;;;10.33;;
9801;SDS011;4940;50.900;4.672;2022-12-13T09:45:16;20.03;;;9.97;;
9801;SDS011;4940;50.900;4.672;2022-12-13T09:47:45;19.30;;;9.87;;
9801;SDS011;4940;50.900;4.672;2022-12-13T09:50:14;20.50;;;10.83;;
9801;SDS011;4940;50.900;4.672;2022-12-13T09:52:44;18.97;;;10.10;;
9801;SDS011;4940;50.900;4.672;2022-12-13T09:55:19;22.37;;;10.70;;
9801;SDS011;4940;50.900;4.672;2022-12-13T09:57:48;17.53;;;9.13;;
9801;SDS011;4940;50.900;4.672;2022-12-13T10:00:17;22.93;;;10.10;;
9801;SDS011;4940;50.900;4.672;2022-12-13T10:02:48;17.93;;;9.40;;
9801;SDS011;4940;50.900;4.672;2022-12-13T10:05:20;23.23;;;9.77;;
9801;SDS011;4940;50.900;4.672;2022-12-13T10:07:53;21.47;;;10.20;;
9801;SDS011;4940;50.900;4.672;2022-12-13T10:10:23;19.73;;;9.87;;
9801;SDS011;4940;50.900;4.672;2022-12-13T10:12:51;20.73;;;10.10;;
9801;SDS011;4940;50.900;4.672;2022-12-13T10:15:23;25.30;;;10.53;;
9801;SDS011;4940;50.900;4.672;2022-12-13T10:17:53;20.07;;;8.80;;
9801;SDS011;4940;50.900;4.672;2022-12-13T10:20:20;23.23;;;10.43;;
9801;SDS011;4940;50.900;4.672;2022-12-13T10:22:50;23.23;;;10.13;;
9801;SDS011;4940;50.900;4.672;2022-12-13T10:25:17;20.80;;;9.97;;
9801;SDS011;4940;50.900;4.672;2022-12-13T10:28:10;24.37;;;9.83;;
9801;SDS011;4940;50.900;4.672;2022-12-13T10:30:38;18.80;;;9.27;;
9801;SDS011;4940;50.900;4.672;2022-12-13T10:33:17;17.97;;;9.47;;
9801;SDS011;4940;50.900;4.672;2022-12-13T10:36:00;20.47;;;8.60;;
9801;SDS011;4940;50.900;4.672;2022-12-13T10:38:29;21.50;;;9.50;;
9801;SDS011;4940;50.900;4.672;2022-12-13T10:41:01;21.70;;;9.07;;
9801;SDS011;4940;50.900;4.672;2022-12-13T10:43:28;19.67;;;8.97;;
9801;SDS011;4940;50.900;4.672;2022-12-13T10:45:57;21.90;;;9.17;;
9801;SDS011;4940;50.900;4.672;2022-12-13T10:48:30;18.60;;;9.27;;
9801;SDS011;4940;50.900;4.672;2022-12-13T10:51:01;23.63;;;9.80;;
9801;SDS011;4940;50.900;4.672;2022-12-13T10:53:31;18.77;;;9.10;;
9801;SDS011;4940;50.900;4.672;2022-12-13T10:56:00;18.37;;;8.87;;
9801;SDS011;4940;50.900;4.672;2022-12-13T10:58:37;21.23;;;9.27;;
9801;SDS011;4940;50.900;4.672;2022-12-13T11:01:07;17.27;;;8.13;;
9801;SDS011;4940;50.900;4.672;2022-12-13T11:03:56;14.20;;;8.03;;
9801;SDS011;4940;50.900;4.672;2022-12-13T11:06:24;17.80;;;8.60;;
9801;SDS011;4940;50.900;4.672;2022-12-13T11:08:52;18.50;;;8.77;;
9801;SDS011;4940;50.900;4.672;2022-12-13T11:11:25;21.33;;;8.40;;
9801;SDS011;4940;50.900;4.672;2022-12-13T11:13:54;17.43;;;7.67;;
9801;SDS011;4940;50.900;4.672;2022-12-13T11:16:26;17.73;;;7.87;;
9801;SDS011;4940;50.900;4.672;2022-12-13T11:19:00;15.10;;;8.10;;
9801;SDS011;4940;50.900;4.672;2022-12-13T11:21:31;17.70;;;7.30;;
9801;SDS011;4940;50.900;4.672;2022-12-13T11:24:00;14.37;;;7.30;;
9801;SDS011;4940;50.900;4.672;2022-12-13T11:26:28;16.33;;;7.23;;
9801;SDS011;4940;50.900;4.672;2022-12-13T11:32:06;15.70;;;7.27;;
9801;SDS011;4940;50.900;4.672;2022-12-13T11:34:43;14.50;;;6.77;;
9801;SDS011;4940;50.900;4.672;2022-12-13T11:37:19;17.13;;;8.13;;
9801;SDS011;4940;50.900;4.672;2022-12-13T11:39:54;17.40;;;7.40;;
9801;SDS011;4940;50.900;4.672;2022-12-13T11:42:27;15.50;;;7.50;;
9801;SDS011;4940;50.900;4.672;2022-12-13T11:44:58;14.80;;;7.40;;
9801;SDS011;4940;50.900;4.672;2022-12-13T11:47:30;19.97;;;8.13;;
9801;SDS011;4940;50.900;4.672;2022-12-13T11:50:05;15.47;;;7.47;;
9801;SDS011;4940;50.900;4.672;2022-12-13T11:52:42;19.03;;;7.63;;
9801;SDS011;4940;50.900;4.672;2022-12-13T11:55:14;15.67;;;6.93;;
9801;SDS011;4940;50.900;4.672;2022-12-13T11:57:45;17.63;;;6.77;;
9801;SDS011;4940;50.900;4.672;2022-12-13T12:00:29;22.97;;;8.40;;
9801;SDS011;4940;50.900;4.672;2022-12-13T12:03:01;15.80;;;7.30;;
9801;SDS011;4940;50.900;4.672;2022-12-13T12:05:44;14.10;;;6.83;;
9801;SDS011;4940;50.900;4.672;2022-12-13T12:08:15;16.43;;;7.07;;
9801;SDS011;4940;50.900;4.672;2022-12-13T12:10:47;15.70;;;7.57;;
9801;SDS011;4940;50.900;4.672;2022-12-13T12:13:18;16.30;;;7.70;;
9801;SDS011;4940;50.900;4.672;2022-12-13T12:15:51;13.70;;;7.30;;
9801;SDS011;4940;50.900;4.672;2022-12-13T12:18:27;15.67;;;7.10;;
9801;SDS011;4940;50.900;4.672;2022-12-13T12:21:02;14.77;;;7.03;;
9801;SDS011;4940;50.900;4.672;2022-12-13T12:23:41;14.17;;;6.90;;
9801;SDS011;4940;50.900;4.672;2022-12-13T12:26:16;13.30;;;6.97;;
9801;SDS011;4940;50.900;4.672;2022-12-13T12:28:55;22.33;;;7.80;;
9801;SDS011;4940;50.900;4.672;2022-12-13T12:31:37;15.30;;;6.40;;
9801;SDS011;4940;50.900;4.672;2022-12-13T12:34:11;15.43;;;7.23;;
9801;SDS011;4940;50.900;4.672;2022-12-13T12:36:50;17.10;;;7.33;;
9801;SDS011;4940;50.900;4.672;2022-12-13T12:39:32;17.40;;;7.90;;
9801;SDS011;4940;50.900;4.672;2022-12-13T12:42:23;17.40;;;7.03;;
9801;SDS011;4940;50.900;4.672;2022-12-13T12:45:04;16.27;;;6.83;;
9801;SDS011;4940;50.900;4.672;2022-12-13T12:47:45;16.93;;;7.30;;
9801;SDS011;4940;50.900;4.672;2022-12-13T12:50:25;13.53;;;6.97;;
9801;SDS011;4940;50.900;4.672;2022-12-13T12:53:05;13.20;;;6.73;;
9801;SDS011;4940;50.900;4.672;2022-12-13T12:55:49;14.33;;;7.07;;
9801;SDS011;4940;50.900;4.672;2022-12-13T12:58:25;21.27;;;8.67;;
9801;SDS011;4940;50.900;4.672;2022-12-13T13:00:58;17.97;;;8.03;;
9801;SDS011;4940;50.900;4.672;2022-12-13T13:03:39;16.13;;;7.13;;
9801;SDS011;4940;50.900;4.672;2022-12-13T13:06:09;17.33;;;6.83;;
9801;SDS011;4940;50.900;4.672;2022-12-13T13:08:43;14.73;;;7.67;;
9801;SDS011;4940;50.900;4.672;2022-12-13T13:11:13;16.10;;;7.00;;
9801;SDS011;4940;50.900;4.672;2022-12-13T13:13:44;16.70;;;7.40;;
9801;SDS011;4940;50.900;4.672;2022-12-13T13:16:34;13.57;;;6.67;;
9801;SDS011;4940;50.900;4.672;2022-12-13T13:19:03;14.10;;;6.90;;
9801;SDS011;4940;50.900;4.672;2022-12-13T13:21:40;19.00;;;6.40;;
9801;SDS011;4940;50.900;4.672;2022-12-13T13:24:15;14.43;;;6.67;;
9801;SDS011;4940;50.900;4.672;2022-12-13T13:26:48;17.07;;;7.87;;
9801;SDS011;4940;50.900;4.672;2022-12-13T13:35:00;17.90;;;8.77;;
9801;SDS011;4940;50.900;4.672;2022-12-13T13:37:57;19.43;;;9.07;;
9801;SDS011;4940;50.900;4.672;2022-12-13T13:40:27;24.33;;;10.17;;
9801;SDS011;4940;50.900;4.672;2022-12-13T13:45:59;19.73;;;8.23;;
9801;SDS011;4940;50.900;4.672;2022-12-13T13:48:38;18.13;;;7.93;;
9801;SDS011;4940;50.900;4.672;2022-12-13T13:51:26;22.23;;;8.97;;
9801;SDS011;4940;50.900;4.672;2022-12-13T13:54:27;23.67;;;9.10;;
9801;SDS011;4940;50.900;4.672;2022-12-13T14:00:19;19.53;;;8.43;;
9801;SDS011;4940;50.900;4.672;2022-12-13T14:02:57;20.30;;;9.63;;
9801;SDS011;4940;50.900;4.672;2022-12-13T14:08:57;18.73;;;9.13;;
9801;SDS011;4940;50.900;4.672;2022-12-13T14:11:53;21.13;;;9.40;;
9801;SDS011;4940;50.900;4.672;2022-12-13T14:18:02;22.70;;;9.67;;
9801;SDS011;4940;50.900;4.672;2022-12-13T14:20:56;26.60;;;11.33;;
9801;SDS011;4940;50.900;4.672;2022-12-13T14:23:40;25.60;;;10.27;;
9801;SDS011;4940;50.900;4.672;2022-12-13T14:26:18;20.70;;;9.37;;
9801;SDS011;4940;50.900;4.672;2022-12-13T14:28:48;28.97;;;10.67;;
9801;SDS011;4940;50.900;4.672;2022-12-13T14:31:19;24.80;;;10.63;;
9801;SDS011;4940;50.900;4.672;2022-12-13T14:33:50;21.67;;;10.50;;
9801;SDS011;4940;50.900;4.672;2022-12-13T14:36:24;28.50;;;10.80;;
9801;SDS011;4940;50.900;4.672;2022-12-13T14:38:58;23.50;;;9.50;;
9801;SDS011;4940;50.900;4.672;2022-12-13T14:41:25;19.40;;;9.33;;
9801;SDS011;4940;50.900;4.672;2022-12-13T14:43:53;26.37;;;12.00;;
9801;SDS011;4940;50.900;4.672;2022-12-13T14:46:20;22.20;;;9.93;;
9801;SDS011;4940;50.900;4.672;2022-12-13T14:48:50;23.67;;;11.77;;
9801;SDS011;4940;50.900;4.672;2022-12-13T14:51:23;28.27;;;11.47;;
9801;SDS011;4940;50.900;4.672;2022-12-13T14:53:52;19.87;;;10.30;;
9801;SDS011;4940;50.900;4.672;2022-12-13T14:56:20;25.87;;;12.40;;
9801;SDS011;4940;50.900;4.672;2022-12-13T14:58:51;25.13;;;10.63;;
9801;SDS011;4940;50.900;4.672;2022-12-13T15:01:26;31.50;;;12.07;;
9801;SDS011;4940;50.900;4.672;2022-12-13T15:07:02;26.57;;;11.23;;
9801;SDS011;4940;50.900;4.672;2022-12-13T15:09:36;21.67;;;11.37;;
9801;SDS011;4940;50.900;4.672;2022-12-13T15:12:08;27.63;;;11.33;;
9801;SDS011;4940;50.900;4.672;2022-12-13T15:14:37;28.83;;;11.73;;
9801;SDS011;4940;50.900;4.672;2022-12-13T15:17:18;25.67;;;10.80;;
9801;SDS011;4940;50.900;4.672;2022-12-13T15:19:52;23.20;;;10.87;;
9801;SDS011;4940;50.900;4.672;2022-12-13T15:22:20;25.73;;;11.43;;
9801;SDS011;4940;50.900;4.672;2022-12-13T15:24:47;22.63;;;10.10;;
9801;SDS011;4940;50.900;4.672;2022-12-13T15:27:16;27.10;;;11.87;;
9801;SDS011;4940;50.900;4.672;2022-12-13T15:29:45;26.17;;;11.30;;
9801;SDS011;4940;50.900;4.672;2022-12-13T15:32:14;25.00;;;11.80;;
9801;SDS011;4940;50.900;4.672;2022-12-13T15:34:43;20.63;;;9.73;;
9801;SDS011;4940;50.900;4.672;2022-12-13T15:37:17;27.97;;;10.97;;
9801;SDS011;4940;50.900;4.672;2022-12-13T15:39:50;24.13;;;11.13;;
9801;SDS011;4940;50.900;4.672;2022-12-13T15:42:21;27.13;;;11.57;;
9801;SDS011;4940;50.900;4.672;2022-12-13T15:44:52;28.47;;;10.73;;
9801;SDS011;4940;50.900;4.672;2022-12-13T15:47:22;26.73;;;12.13;;